sensor_id;sensor_type;location;lat;lon;timestamp;pressure;altitude;pressure_sealevel;temperature;humidity
36234;BME280;43467;50.890;5.982;2023-05-17T00:02:10;101005.66;;;11.45;73.34
36234;BME280;43467;50.890;5.982;2023-05-17T00:04:35;101014.25;;;11.52;73.18
36234;BME280;43467;50.890;5.982;2023-05-17T00:07:01;101014.72;;;11.40;73.91
36234;BME280;43467;50.890;5.982;2023-05-17T00:09:26;101000.72;;;11.36;74.13
36234;BME280;43467;50.890;5.982;2023-05-17T00:11:52;101009.47;;;11.38;73.83
36234;BME280;43467;50.890;5.982;2023-05-17T00:14:17;101017.19;;;11.44;74.32
36234;BME280;43467;50.890;5.982;2023-05-17T00:16:43;101004.13;;;11.40;73.95
36234;BME280;43467;50.890;5.982;2023-05-17T00:19:08;101014.44;;;11.47;74.00
36234;BME280;43467;50.890;5.982;2023-05-17T00:21:34;101022.72;;;11.38;74.17
36234;BME280;43467;50.890;5.982;2023-05-17T00:23:59;101024.13;;;11.48;73.60
36234;BME280;43467;50.890;5.982;2023-05-17T00:26:25;101016.53;;;11.38;74.65
36234;BME280;43467;50.890;5.982;2023-05-17T00:28:50;101014.75;;;11.38;74.06
36234;BME280;43467;50.890;5.982;2023-05-17T00:31:16;101016.91;;;11.29;74.83
36234;BME280;43467;50.890;5.982;2023-05-17T00:33:41;101019.44;;;11.32;74.83
36234;BME280;43467;50.890;5.982;2023-05-17T00:36:07;101025.81;;;11.26;74.68
36234;BME280;43467;50.890;5.982;2023-05-17T00:38:32;101028.47;;;11.26;74.51
36234;BME280;43467;50.890;5.982;2023-05-17T00:40:57;101028.94;;;11.37;74.29
36234;BME280;43467;50.890;5.982;2023-05-17T00:43:23;101024.06;;;11.25;74.97
36234;BME280;43467;50.890;5.982;2023-05-17T00:45:50;101023.31;;;11.22;74.94
36234;BME280;43467;50.890;5.982;2023-05-17T00:48:15;101023.16;;;11.26;74.71
36234;BME280;43467;50.890;5.982;2023-05-17T00:50:41;101020.38;;;11.29;75.30
36234;BME280;43467;50.890;5.982;2023-05-17T00:53:08;101024.91;;;11.27;75.15
36234;BME280;43467;50.890;5.982;2023-05-17T00:55:33;101022.25;;;11.27;74.85
36234;BME280;43467;50.890;5.982;2023-05-17T00:57:59;101014.56;;;11.19;75.07
36234;BME280;43467;50.890;5.982;2023-05-17T01:00:25;101020.81;;;11.17;75.63
36234;BME280;43467;50.890;5.982;2023-05-17T01:02:52;101018.38;;;11.12;75.22
36234;BME280;43467;50.890;5.982;2023-05-17T01:05:17;101024.00;;;11.03;76.28
36234;BME280;43467;50.890;5.982;2023-05-17T01:07:43;101024.63;;;11.10;75.49
36234;BME280;43467;50.890;5.982;2023-05-17T01:10:08;101025.72;;;11.04;75.95
36234;BME280;43467;50.890;5.982;2023-05-17T01:15:22;101023.22;;;11.00;76.18
36234;BME280;43467;50.890;5.982;2023-05-17T01:18:22;101031.34;;;10.95;76.59
36234;BME280;43467;50.890;5.982;2023-05-17T01:20:54;101030.34;;;10.98;76.57
36234;BME280;43467;50.890;5.982;2023-05-17T01:23:40;101033.13;;;10.95;76.70
36234;BME280;43467;50.890;5.982;2023-05-17T01:28:36;101037.50;;;10.69;77.72
36234;BME280;43467;50.890;5.982;2023-05-17T01:31:02;101035.63;;;10.73;77.75
36234;BME280;43467;50.890;5.982;2023-05-17T01:33:28;101041.78;;;10.73;77.73
36234;BME280;43467;50.890;5.982;2023-05-17T01:35:54;101040.16;;;10.69;78.02
36234;BME280;43467;50.890;5.982;2023-05-17T01:38:19;101051.81;;;10.64;78.30
36234;BME280;43467;50.890;5.982;2023-05-17T01:40:57;101039.81;;;10.54;79.02
36234;BME280;43467;50.890;5.982;2023-05-17T01:43:49;101045.25;;;10.49;79.33
36234;BME280;43467;50.890;5.982;2023-05-17T01:46:26;101032.03;;;10.48;79.34
36234;BME280;43467;50.890;5.982;2023-05-17T01:49:04;101040.56;;;10.57;78.97
36234;BME280;43467;50.890;5.982;2023-05-17T01:51:33;101046.78;;;10.29;80.31
36234;BME280;43467;50.890;5.982;2023-05-17T01:54:04;101052.84;;;10.32;80.43
36234;BME280;43467;50.890;5.982;2023-05-17T01:56:38;101060.28;;;10.21;81.12
36234;BME280;43467;50.890;5.982;2023-05-17T01:59:06;101046.03;;;10.25;80.35
36234;BME280;43467;50.890;5.982;2023-05-17T02:01:32;101060.00;;;10.30;80.62
36234;BME280;43467;50.890;5.982;2023-05-17T02:03:59;101055.47;;;10.34;80.55
36234;BME280;43467;50.890;5.982;2023-05-17T02:06:24;101048.38;;;10.34;79.91
36234;BME280;43467;50.890;5.982;2023-05-17T02:08:50;101059.34;;;10.50;80.12
36234;BME280;43467;50.890;5.982;2023-05-17T02:11:15;101054.16;;;10.47;79.43
36234;BME280;43467;50.890;5.982;2023-05-17T02:13:41;101056.56;;;10.54;79.60
36234;BME280;43467;50.890;5.982;2023-05-17T02:16:06;101054.56;;;10.61;79.98
36234;BME280;43467;50.890;5.982;2023-05-17T02:18:32;101057.22;;;10.61;79.33
36234;BME280;43467;50.890;5.982;2023-05-17T02:20:59;101056.56;;;10.54;79.21
36234;BME280;43467;50.890;5.982;2023-05-17T02:23:25;101061.63;;;10.60;79.07
36234;BME280;43467;50.890;5.982;2023-05-17T02:25:50;101060.69;;;10.63;79.43
36234;BME280;43467;50.890;5.982;2023-05-17T02:28:16;101050.25;;;10.58;79.29
36234;BME280;43467;50.890;5.982;2023-05-17T02:30:41;101049.09;;;10.67;79.21
36234;BME280;43467;50.890;5.982;2023-05-17T02:33:07;101056.78;;;10.75;78.61
36234;BME280;43467;50.890;5.982;2023-05-17T02:35:33;101063.81;;;10.76;78.81
36234;BME280;43467;50.890;5.982;2023-05-17T02:37:59;101062.00;;;10.76;78.52
36234;BME280;43467;50.890;5.982;2023-05-17T02:40:24;101063.19;;;10.67;79.29
36234;BME280;43467;50.890;5.982;2023-05-17T02:42:50;101046.00;;;10.53;79.89
36234;BME280;43467;50.890;5.982;2023-05-17T02:45:15;101058.28;;;10.55;79.65
36234;BME280;43467;50.890;5.982;2023-05-17T02:47:41;101055.41;;;10.35;80.66
36234;BME280;43467;50.890;5.982;2023-05-17T02:50:06;101055.97;;;10.45;80.74
36234;BME280;43467;50.890;5.982;2023-05-17T02:52:32;101064.81;;;10.44;80.55
36234;BME280;43467;50.890;5.982;2023-05-17T02:54:57;101064.59;;;10.51;80.42
36234;BME280;43467;50.890;5.982;2023-05-17T02:57:23;101057.56;;;10.50;80.32
36234;BME280;43467;50.890;5.982;2023-05-17T02:59:48;101061.09;;;10.51;80.31
36234;BME280;43467;50.890;5.982;2023-05-17T03:02:14;101062.78;;;10.52;79.99
36234;BME280;43467;50.890;5.982;2023-05-17T03:04:39;101070.41;;;10.62;79.92
36234;BME280;43467;50.890;5.982;2023-05-17T03:07:05;101071.13;;;10.67;79.60
36234;BME280;43467;50.890;5.982;2023-05-17T03:09:31;101080.00;;;10.66;79.54
36234;BME280;43467;50.890;5.982;2023-05-17T03:11:56;101073.06;;;10.62;80.23
36234;BME280;43467;50.890;5.982;2023-05-17T03:14:22;101078.78;;;10.49;80.87
36234;BME280;43467;50.890;5.982;2023-05-17T03:16:47;101074.91;;;10.33;81.80
36234;BME280;43467;50.890;5.982;2023-05-17T03:19:12;101077.06;;;10.20;82.42
36234;BME280;43467;50.890;5.982;2023-05-17T03:21:38;101079.59;;;10.23;82.52
36234;BME280;43467;50.890;5.982;2023-05-17T03:24:03;101080.59;;;10.19;82.30
36234;BME280;43467;50.890;5.982;2023-05-17T03:26:29;101072.53;;;10.23;82.73
36234;BME280;43467;50.890;5.982;2023-05-17T03:28:56;101083.03;;;10.27;82.23
36234;BME280;43467;50.890;5.982;2023-05-17T03:31:21;101080.56;;;10.20;82.71
36234;BME280;43467;50.890;5.982;2023-05-17T03:33:47;101094.28;;;10.04;84.21
36234;BME280;43467;50.890;5.982;2023-05-17T03:36:13;101081.25;;;9.98;84.07
36234;BME280;43467;50.890;5.982;2023-05-17T03:38:38;101091.09;;;9.93;84.97
36234;BME280;43467;50.890;5.982;2023-05-17T03:41:04;101094.50;;;9.96;84.24
36234;BME280;43467;50.890;5.982;2023-05-17T03:43:30;101098.00;;;9.98;84.13
36234;BME280;43467;50.890;5.982;2023-05-17T03:45:55;101101.09;;;10.11;83.67
36234;BME280;43467;50.890;5.982;2023-05-17T03:48:20;101099.22;;;10.16;83.60
36234;BME280;43467;50.890;5.982;2023-05-17T03:50:46;101097.28;;;10.22;82.66
36234;BME280;43467;50.890;5.982;2023-05-17T03:53:11;101086.97;;;10.12;82.97
36234;BME280;43467;50.890;5.982;2023-05-17T03:55:37;101099.25;;;10.14;82.96
36234;BME280;43467;50.890;5.982;2023-05-17T03:58:02;101098.47;;;10.11;83.51
36234;BME280;43467;50.890;5.982;2023-05-17T04:00:27;101098.69;;;10.03;84.70
36234;BME280;43467;50.890;5.982;2023-05-17T04:02:53;101106.94;;;9.94;85.21
36234;BME280;43467;50.890;5.982;2023-05-17T04:05:19;101093.84;;;10.19;84.08
36234;BME280;43467;50.890;5.982;2023-05-17T04:07:44;101091.34;;;10.13;84.94
36234;BME280;43467;50.890;5.982;2023-05-17T04:10:10;101095.66;;;10.18;84.39
36234;BME280;43467;50.890;5.982;2023-05-17T04:12:36;101099.84;;;10.25;84.14
36234;BME280;43467;50.890;5.982;2023-05-17T04:15:02;101102.25;;;10.33;83.87
36234;BME280;43467;50.890;5.982;2023-05-17T04:17:27;101103.38;;;10.24;84.24
36234;BME280;43467;50.890;5.982;2023-05-17T04:19:53;101107.88;;;10.22;84.02
36234;BME280;43467;50.890;5.982;2023-05-17T04:22:19;101113.56;;;10.07;85.05
36234;BME280;43467;50.890;5.982;2023-05-17T04:24:45;101117.97;;;10.07;85.07
36234;BME280;43467;50.890;5.982;2023-05-17T04:27:11;101126.84;;;10.06;85.13
36234;BME280;43467;50.890;5.982;2023-05-17T04:29:36;101134.94;;;10.01;85.47
36234;BME280;43467;50.890;5.982;2023-05-17T04:32:02;101132.41;;;9.97;86.58
36234;BME280;43467;50.890;5.982;2023-05-17T04:34:28;101138.38;;;10.03;86.00
36234;BME280;43467;50.890;5.982;2023-05-17T04:36:53;101138.97;;;10.14;85.27
36234;BME280;43467;50.890;5.982;2023-05-17T04:39:19;101136.91;;;10.24;84.72
36234;BME280;43467;50.890;5.982;2023-05-17T04:41:45;101144.25;;;10.14;85.27
36234;BME280;43467;50.890;5.982;2023-05-17T04:44:10;101140.63;;;10.18;85.64
36234;BME280;43467;50.890;5.982;2023-05-17T04:46:36;101144.28;;;10.13;86.20
36234;BME280;43467;50.890;5.982;2023-05-17T04:49:02;101144.66;;;9.99;87.02
36234;BME280;43467;50.890;5.982;2023-05-17T04:51:30;101146.50;;;9.97;87.50
36234;BME280;43467;50.890;5.982;2023-05-17T04:53:56;101147.16;;;10.05;86.69
36234;BME280;43467;50.890;5.982;2023-05-17T04:56:25;101153.44;;;10.01;87.09
36234;BME280;43467;50.890;5.982;2023-05-17T04:58:50;101153.13;;;10.12;86.46
36234;BME280;43467;50.890;5.982;2023-05-17T05:01:15;101147.75;;;10.15;85.88
36234;BME280;43467;50.890;5.982;2023-05-17T05:03:41;101158.19;;;10.21;85.88
36234;BME280;43467;50.890;5.982;2023-05-17T05:06:07;101157.72;;;10.36;85.25
36234;BME280;43467;50.890;5.982;2023-05-17T05:08:32;101164.75;;;10.37;84.74
36234;BME280;43467;50.890;5.982;2023-05-17T05:10:58;101158.47;;;10.41;84.69
36234;BME280;43467;50.890;5.982;2023-05-17T05:13:24;101150.72;;;10.35;84.41
36234;BME280;43467;50.890;5.982;2023-05-17T05:15:49;101167.50;;;10.34;84.68
36234;BME280;43467;50.890;5.982;2023-05-17T05:18:15;101174.38;;;10.40;84.28
36234;BME280;43467;50.890;5.982;2023-05-17T05:20:40;101167.88;;;10.51;84.10
36234;BME280;43467;50.890;5.982;2023-05-17T05:23:06;101169.78;;;10.46;83.74
36234;BME280;43467;50.890;5.982;2023-05-17T05:25:31;101175.63;;;10.28;84.60
36234;BME280;43467;50.890;5.982;2023-05-17T05:27:57;101183.53;;;10.30;85.27
36234;BME280;43467;50.890;5.982;2023-05-17T05:30:23;101183.47;;;10.31;85.57
36234;BME280;43467;50.890;5.982;2023-05-17T05:32:49;101185.44;;;10.24;86.08
36234;BME280;43467;50.890;5.982;2023-05-17T05:35:15;101194.09;;;10.30;86.14
36234;BME280;43467;50.890;5.982;2023-05-17T05:37:42;101201.56;;;10.15;87.22
36234;BME280;43467;50.890;5.982;2023-05-17T05:40:08;101191.88;;;10.14;87.10
36234;BME280;43467;50.890;5.982;2023-05-17T05:42:34;101205.31;;;10.07;87.90
36234;BME280;43467;50.890;5.982;2023-05-17T05:45:00;101195.78;;;10.01;88.94
36234;BME280;43467;50.890;5.982;2023-05-17T05:47:25;101183.41;;;10.02;88.93
36234;BME280;43467;50.890;5.982;2023-05-17T05:49:50;101189.75;;;10.27;87.88
36234;BME280;43467;50.890;5.982;2023-05-17T05:52:16;101194.03;;;10.31;87.17
36234;BME280;43467;50.890;5.982;2023-05-17T05:54:43;101199.34;;;10.31;87.36
36234;BME280;43467;50.890;5.982;2023-05-17T05:57:08;101199.28;;;10.34;88.01
36234;BME280;43467;50.890;5.982;2023-05-17T05:59:34;101206.75;;;10.49;87.08
36234;BME280;43467;50.890;5.982;2023-05-17T06:01:59;101208.25;;;10.58;87.04
36234;BME280;43467;50.890;5.982;2023-05-17T06:04:25;101216.16;;;10.59;86.96
36234;BME280;43467;50.890;5.982;2023-05-17T06:06:50;101213.09;;;10.44;87.99
36234;BME280;43467;50.890;5.982;2023-05-17T06:09:16;101215.22;;;10.60;87.82
36234;BME280;43467;50.890;5.982;2023-05-17T06:11:42;101202.38;;;10.76;86.85
36234;BME280;43467;50.890;5.982;2023-05-17T06:14:07;101216.03;;;10.92;86.58
36234;BME280;43467;50.890;5.982;2023-05-17T06:16:33;101219.00;;;11.09;85.76
36234;BME280;43467;50.890;5.982;2023-05-17T06:18:59;101218.84;;;10.87;86.70
36234;BME280;43467;50.890;5.982;2023-05-17T06:21:24;101223.53;;;10.78;87.34
36234;BME280;43467;50.890;5.982;2023-05-17T06:23:50;101222.63;;;10.79;87.91
36234;BME280;43467;50.890;5.982;2023-05-17T06:26:15;101217.34;;;10.79;87.42
36234;BME280;43467;50.890;5.982;2023-05-17T06:28:40;101216.38;;;10.81;87.95
36234;BME280;43467;50.890;5.982;2023-05-17T06:31:06;101227.19;;;10.73;88.54
36234;BME280;43467;50.890;5.982;2023-05-17T06:33:31;101222.72;;;10.76;88.32
36234;BME280;43467;50.890;5.982;2023-05-17T06:35:57;101219.84;;;10.83;87.81
36234;BME280;43467;50.890;5.982;2023-05-17T06:38:23;101211.03;;;10.83;87.64
36234;BME280;43467;50.890;5.982;2023-05-17T06:40:54;101220.66;;;10.85;87.88
36234;BME280;43467;50.890;5.982;2023-05-17T06:43:21;101226.72;;;10.89;88.30
36234;BME280;43467;50.890;5.982;2023-05-17T06:45:47;101231.72;;;10.98;87.48
36234;BME280;43467;50.890;5.982;2023-05-17T06:48:12;101234.97;;;11.07;87.15
36234;BME280;43467;50.890;5.982;2023-05-17T06:50:37;101237.22;;;11.19;86.75
36234;BME280;43467;50.890;5.982;2023-05-17T06:53:03;101236.88;;;11.30;85.76
36234;BME280;43467;50.890;5.982;2023-05-17T06:55:29;101236.69;;;11.36;85.28
36234;BME280;43467;50.890;5.982;2023-05-17T06:57:55;101230.97;;;11.48;84.14
36234;BME280;43467;50.890;5.982;2023-05-17T07:00:20;101222.16;;;11.48;84.02
36234;BME280;43467;50.890;5.982;2023-05-17T07:02:46;101237.50;;;11.64;83.55
36234;BME280;43467;50.890;5.982;2023-05-17T07:05:12;101231.16;;;11.69;82.92
36234;BME280;43467;50.890;5.982;2023-05-17T07:07:37;101246.69;;;11.81;83.03
36234;BME280;43467;50.890;5.982;2023-05-17T07:10:04;101234.56;;;11.74;82.88
36234;BME280;43467;50.890;5.982;2023-05-17T07:12:30;101238.03;;;11.76;82.37
36234;BME280;43467;50.890;5.982;2023-05-17T07:14:55;101231.16;;;11.69;81.13
36234;BME280;43467;50.890;5.982;2023-05-17T07:17:21;101240.56;;;11.79;81.55
36234;BME280;43467;50.890;5.982;2023-05-17T07:19:46;101248.31;;;11.85;80.92
36234;BME280;43467;50.890;5.982;2023-05-17T07:22:15;101241.22;;;11.85;81.01
36234;BME280;43467;50.890;5.982;2023-05-17T07:24:42;101257.19;;;11.84;80.89
36234;BME280;43467;50.890;5.982;2023-05-17T07:27:08;101255.28;;;11.87;80.37
36234;BME280;43467;50.890;5.982;2023-05-17T07:29:33;101252.50;;;11.92;79.56
36234;BME280;43467;50.890;5.982;2023-05-17T07:31:59;101248.66;;;12.00;79.55
36234;BME280;43467;50.890;5.982;2023-05-17T07:34:24;101258.88;;;12.11;78.25
36234;BME280;43467;50.890;5.982;2023-05-17T07:36:50;101257.38;;;12.04;77.33
36234;BME280;43467;50.890;5.982;2023-05-17T07:39:15;101260.19;;;11.99;77.31
36234;BME280;43467;50.890;5.982;2023-05-17T07:41:41;101256.13;;;12.14;77.09
36234;BME280;43467;50.890;5.982;2023-05-17T07:44:06;101256.44;;;12.05;75.91
36234;BME280;43467;50.890;5.982;2023-05-17T07:46:31;101248.31;;;12.09;75.71
36234;BME280;43467;50.890;5.982;2023-05-17T07:48:57;101257.41;;;12.27;75.61
36234;BME280;43467;50.890;5.982;2023-05-17T07:51:22;101256.44;;;12.30;74.98
36234;BME280;43467;50.890;5.982;2023-05-17T07:53:48;101256.94;;;12.39;73.43
36234;BME280;43467;50.890;5.982;2023-05-17T07:56:13;101256.00;;;12.42;72.60
36234;BME280;43467;50.890;5.982;2023-05-17T07:58:38;101254.72;;;12.52;71.88
36234;BME280;43467;50.890;5.982;2023-05-17T08:01:04;101262.97;;;12.68;71.46
36234;BME280;43467;50.890;5.982;2023-05-17T08:03:29;101262.50;;;12.80;69.98
36234;BME280;43467;50.890;5.982;2023-05-17T08:05:56;101270.06;;;12.90;68.58
36234;BME280;43467;50.890;5.982;2023-05-17T08:08:24;101263.06;;;12.88;67.42
36234;BME280;43467;50.890;5.982;2023-05-17T08:10:50;101274.34;;;12.94;67.10
36234;BME280;43467;50.890;5.982;2023-05-17T08:13:15;101276.94;;;12.96;66.18
36234;BME280;43467;50.890;5.982;2023-05-17T08:15:41;101277.38;;;13.07;65.37
36234;BME280;43467;50.890;5.982;2023-05-17T08:18:06;101275.06;;;13.21;64.63
36234;BME280;43467;50.890;5.982;2023-05-17T08:20:32;101273.28;;;13.22;63.14
36234;BME280;43467;50.890;5.982;2023-05-17T08:22:57;101277.69;;;13.23;63.23
36234;BME280;43467;50.890;5.982;2023-05-17T08:25:23;101286.16;;;13.11;62.65
36234;BME280;43467;50.890;5.982;2023-05-17T08:27:48;101276.66;;;13.03;62.66
36234;BME280;43467;50.890;5.982;2023-05-17T08:30:14;101284.53;;;13.05;60.80
36234;BME280;43467;50.890;5.982;2023-05-17T08:32:39;101274.16;;;12.99;60.03
36234;BME280;43467;50.890;5.982;2023-05-17T08:35:05;101274.63;;;13.10;61.02
36234;BME280;43467;50.890;5.982;2023-05-17T08:37:31;101280.09;;;13.05;57.39
36234;BME280;43467;50.890;5.982;2023-05-17T08:39:56;101271.50;;;12.99;58.71
36234;BME280;43467;50.890;5.982;2023-05-17T08:42:23;101273.72;;;13.10;59.84
36234;BME280;43467;50.890;5.982;2023-05-17T08:44:50;101277.88;;;12.95;58.21
36234;BME280;43467;50.890;5.982;2023-05-17T08:47:16;101273.03;;;12.83;58.72
36234;BME280;43467;50.890;5.982;2023-05-17T08:49:51;101277.03;;;12.93;58.51
36234;BME280;43467;50.890;5.982;2023-05-17T08:52:16;101272.78;;;12.89;58.16
36234;BME280;43467;50.890;5.982;2023-05-17T08:54:42;101270.94;;;12.91;58.85
36234;BME280;43467;50.890;5.982;2023-05-17T08:57:08;101278.63;;;12.98;58.07
36234;BME280;43467;50.890;5.982;2023-05-17T08:59:34;101285.59;;;13.01;58.06
36234;BME280;43467;50.890;5.982;2023-05-17T09:02:01;101284.91;;;13.19;58.87
36234;BME280;43467;50.890;5.982;2023-05-17T09:04:28;101278.75;;;13.40;59.09
36234;BME280;43467;50.890;5.982;2023-05-17T09:06:55;101280.03;;;13.52;58.61
36234;BME280;43467;50.890;5.982;2023-05-17T09:09:20;101282.09;;;13.66;57.35
36234;BME280;43467;50.890;5.982;2023-05-17T09:11:46;101289.38;;;13.82;56.50
36234;BME280;43467;50.890;5.982;2023-05-17T09:14:14;101273.50;;;13.81;54.66
36234;BME280;43467;50.890;5.982;2023-05-17T09:16:40;101295.94;;;13.74;54.10
36234;BME280;43467;50.890;5.982;2023-05-17T09:19:13;101288.59;;;13.80;54.10
36234;BME280;43467;50.890;5.982;2023-05-17T09:21:47;101286.59;;;13.85;54.23
36234;BME280;43467;50.890;5.982;2023-05-17T09:24:12;101276.41;;;13.75;53.77
36234;BME280;43467;50.890;5.982;2023-05-17T09:26:43;101279.53;;;13.84;54.15
36234;BME280;43467;50.890;5.982;2023-05-17T09:29:14;101284.53;;;13.92;53.30
36234;BME280;43467;50.890;5.982;2023-05-17T09:31:40;101282.38;;;14.02;50.05
36234;BME280;43467;50.890;5.982;2023-05-17T09:34:06;101280.97;;;14.13;50.16
36234;BME280;43467;50.890;5.982;2023-05-17T09:36:32;101284.69;;;14.29;49.03
36234;BME280;43467;50.890;5.982;2023-05-17T09:39:03;101284.84;;;14.47;49.78
36234;BME280;43467;50.890;5.982;2023-05-17T09:41:42;101279.16;;;14.34;50.32
36234;BME280;43467;50.890;5.982;2023-05-17T09:44:10;101290.72;;;14.33;49.16
36234;BME280;43467;50.890;5.982;2023-05-17T09:46:38;101283.53;;;14.15;52.04
36234;BME280;43467;50.890;5.982;2023-05-17T09:49:05;101278.81;;;14.01;51.76
36234;BME280;43467;50.890;5.982;2023-05-17T09:51:33;101289.38;;;13.82;50.07
36234;BME280;43467;50.890;5.982;2023-05-17T09:53:59;101282.66;;;13.74;49.68
36234;BME280;43467;50.890;5.982;2023-05-17T09:56:28;101288.78;;;13.76;50.85
36234;BME280;43467;50.890;5.982;2023-05-17T09:58:55;101285.56;;;13.89;49.59
36234;BME280;43467;50.890;5.982;2023-05-17T10:01:21;101286.88;;;14.00;48.02
36234;BME280;43467;50.890;5.982;2023-05-17T10:03:49;101283.34;;;13.99;48.15
36234;BME280;43467;50.890;5.982;2023-05-17T10:06:15;101274.97;;;14.08;48.52
36234;BME280;43467;50.890;5.982;2023-05-17T10:08:45;101276.41;;;14.15;47.82
36234;BME280;43467;50.890;5.982;2023-05-17T10:11:16;101284.69;;;14.29;49.11
36234;BME280;43467;50.890;5.982;2023-05-17T10:16:08;101274.81;;;14.52;49.30
36234;BME280;43467;50.890;5.982;2023-05-17T10:18:35;101275.69;;;14.52;48.38
36234;BME280;43467;50.890;5.982;2023-05-17T10:21:02;101280.03;;;14.55;47.81
36234;BME280;43467;50.890;5.982;2023-05-17T10:23:28;101282.53;;;14.58;48.34
36234;BME280;43467;50.890;5.982;2023-05-17T10:25:54;101280.94;;;14.54;47.69
36234;BME280;43467;50.890;5.982;2023-05-17T10:28:20;101278.03;;;14.39;48.19
36234;BME280;43467;50.890;5.982;2023-05-17T10:30:47;101276.03;;;14.45;47.74
36234;BME280;43467;50.890;5.982;2023-05-17T10:33:14;101273.88;;;14.53;48.60
36234;BME280;43467;50.890;5.982;2023-05-17T10:35:40;101270.13;;;14.57;48.82
36234;BME280;43467;50.890;5.982;2023-05-17T10:38:07;101261.22;;;14.58;48.71
36234;BME280;43467;50.890;5.982;2023-05-17T10:40:34;101264.03;;;14.55;47.18
36234;BME280;43467;50.890;5.982;2023-05-17T10:43:01;101250.19;;;14.65;48.36
36234;BME280;43467;50.890;5.982;2023-05-17T10:45:29;101263.47;;;14.67;46.55
36234;BME280;43467;50.890;5.982;2023-05-17T10:47:55;101254.97;;;14.59;48.93
36234;BME280;43467;50.890;5.982;2023-05-17T10:50:25;101268.97;;;14.43;45.52
36234;BME280;43467;50.890;5.982;2023-05-17T10:52:52;101257.94;;;14.51;47.82
36234;BME280;43467;50.890;5.982;2023-05-17T10:55:24;101257.75;;;14.56;46.53
36234;BME280;43467;50.890;5.982;2023-05-17T10:58:19;101245.44;;;14.53;46.28
36234;BME280;43467;50.890;5.982;2023-05-17T11:00:49;101247.88;;;14.58;45.28
36234;BME280;43467;50.890;5.982;2023-05-17T11:03:17;101254.00;;;14.60;45.04
36234;BME280;43467;50.890;5.982;2023-05-17T11:08:35;101245.66;;;14.86;43.82
36234;BME280;43467;50.890;5.982;2023-05-17T11:11:16;101235.06;;;14.84;42.44
36234;BME280;43467;50.890;5.982;2023-05-17T11:13:49;101241.31;;;14.83;44.96
36234;BME280;43467;50.890;5.982;2023-05-17T11:16:17;101244.94;;;14.82;43.48
36234;BME280;43467;50.890;5.982;2023-05-17T11:18:54;101250.06;;;14.87;43.01
36234;BME280;43467;50.890;5.982;2023-05-17T11:21:21;101234.84;;;14.89;43.18
36234;BME280;43467;50.890;5.982;2023-05-17T11:23:49;101245.25;;;14.95;43.44
36234;BME280;43467;50.890;5.982;2023-05-17T11:26:27;101232.53;;;14.81;41.43
36234;BME280;43467;50.890;5.982;2023-05-17T11:29:01;101246.94;;;14.96;42.72
36234;BME280;43467;50.890;5.982;2023-05-17T11:31:30;101243.19;;;15.00;44.86
36234;BME280;43467;50.890;5.982;2023-05-17T11:33:57;101264.47;;;14.83;42.11
36234;BME280;43467;50.890;5.982;2023-05-17T11:36:24;101247.69;;;14.81;43.42
36234;BME280;43467;50.890;5.982;2023-05-17T11:39:08;101246.59;;;14.85;42.78
36234;BME280;43467;50.890;5.982;2023-05-17T11:41:36;101257.31;;;14.83;42.07
36234;BME280;43467;50.890;5.982;2023-05-17T11:44:06;101256.25;;;14.87;41.48
36234;BME280;43467;50.890;5.982;2023-05-17T11:46:31;101238.00;;;14.97;43.36
36234;BME280;43467;50.890;5.982;2023-05-17T11:48:58;101242.19;;;15.03;42.83
36234;BME280;43467;50.890;5.982;2023-05-17T11:51:24;101241.97;;;15.07;43.24
36234;BME280;43467;50.890;5.982;2023-05-17T11:53:52;101237.84;;;15.00;43.00
36234;BME280;43467;50.890;5.982;2023-05-17T11:56:19;101240.63;;;14.99;42.35
36234;BME280;43467;50.890;5.982;2023-05-17T11:58:44;101242.09;;;15.04;42.86
36234;BME280;43467;50.890;5.982;2023-05-17T12:01:14;101237.03;;;15.00;42.34
36234;BME280;43467;50.890;5.982;2023-05-17T12:03:40;101241.28;;;15.04;41.33
36234;BME280;43467;50.890;5.982;2023-05-17T12:06:14;101249.88;;;15.09;41.00
36234;BME280;43467;50.890;5.982;2023-05-17T12:08:44;101243.50;;;14.94;41.50
36234;BME280;43467;50.890;5.982;2023-05-17T12:11:13;101243.56;;;14.93;42.07
36234;BME280;43467;50.890;5.982;2023-05-17T12:13:39;101230.28;;;15.10;43.42
36234;BME280;43467;50.890;5.982;2023-05-17T12:16:11;101232.41;;;15.20;43.44
36234;BME280;43467;50.890;5.982;2023-05-17T12:21:04;101229.78;;;15.38;42.52
36234;BME280;43467;50.890;5.982;2023-05-17T12:23:35;101233.50;;;15.35;43.02
36234;BME280;43467;50.890;5.982;2023-05-17T12:26:21;101220.91;;;15.37;42.83
36234;BME280;43467;50.890;5.982;2023-05-17T12:28:55;101230.28;;;15.46;42.78
36234;BME280;43467;50.890;5.982;2023-05-17T12:31:28;101233.88;;;15.45;41.81
36234;BME280;43467;50.890;5.982;2023-05-17T12:33:55;101231.38;;;15.42;40.81
36234;BME280;43467;50.890;5.982;2023-05-17T12:36:23;101227.97;;;15.21;40.56
36234;BME280;43467;50.890;5.982;2023-05-17T12:38:50;101228.06;;;15.19;39.96
36234;BME280;43467;50.890;5.982;2023-05-17T12:41:16;101218.84;;;15.25;41.09
36234;BME280;43467;50.890;5.982;2023-05-17T12:43:45;101214.72;;;15.55;42.31
36234;BME280;43467;50.890;5.982;2023-05-17T12:46:15;101220.81;;;15.57;40.83
36234;BME280;43467;50.890;5.982;2023-05-17T12:48:45;101221.06;;;15.70;42.60
36234;BME280;43467;50.890;5.982;2023-05-17T12:51:16;101227.19;;;15.72;41.71
36234;BME280;43467;50.890;5.982;2023-05-17T12:53:43;101227.22;;;15.89;41.47
36234;BME280;43467;50.890;5.982;2023-05-17T12:56:20;101229.13;;;16.03;41.58
36234;BME280;43467;50.890;5.982;2023-05-17T13:01:42;101227.56;;;16.16;41.77
36234;BME280;43467;50.890;5.982;2023-05-17T13:04:09;101217.00;;;16.30;40.63
36234;BME280;43467;50.890;5.982;2023-05-17T13:06:52;101231.56;;;16.24;40.13